Time;durP1;ratioP1;P1;durP2;ratioP2;P2;SDS_P1;SDS_P2;PMS_P1;PMS_P2;Temp;Humidity;BMP_temperature;BMP_pressure;BME280_temperature;BME280_humidity;BME280_pressure;Samples;Min_cycle;Max_cycle;Signal;HPM_P1;HPM_P2
2023/04/10 00:01:05;;;;;;;7.68;1.42;;;10.90;99.90;;;;;;5134106;27;20037;-74
2023/04/10 00:03:32;;;;;;;6.85;1.30;;;10.90;99.90;;;;;;5133629;27;20460;-73
2023/04/10 00:05:58;;;;;;;6.72;1.52;;;10.90;99.90;;;;;;5133865;27;20122;-73
2023/04/10 00:08:24;;;;;;;8.35;1.33;;;10.90;99.90;;;;;;5133556;27;20435;-76
2023/04/10 00:10:53;;;;;;;3.40;1.48;;;10.80;99.90;;;;;;5133939;27;20110;-73
2023/04/10 00:13:19;;;;;;;4.28;1.40;;;10.80;99.90;;;;;;5133945;27;20360;-73
2023/04/10 00:15:45;;;;;;;4.68;1.35;;;10.70;99.90;;;;;;5133292;27;20046;-73
2023/04/10 00:18:11;;;;;;;6.30;1.45;;;10.60;99.90;;;;;;5133743;27;20428;-74
2023/04/10 00:20:37;;;;;;;7.80;2.15;;;10.60;99.90;;;;;;5133422;27;20023;-74
2023/04/10 00:23:02;;;;;;;3.95;1.13;;;10.60;99.90;;;;;;5133463;27;20445;-74
2023/04/10 00:25:28;;;;;;;6.00;1.60;;;10.50;99.90;;;;;;5114741;27;20023;-74
2023/04/10 00:27:54;;;;;;;9.98;1.45;;;10.50;99.90;;;;;;5115543;27;20180;-74
2023/04/10 00:30:20;;;;;;;8.70;1.80;;;10.50;99.90;;;;;;5132837;27;20019;-74
2023/04/10 00:32:46;;;;;;;6.43;1.70;;;10.40;99.90;;;;;;5132764;27;20795;-74
2023/04/10 00:35:12;;;;;;;6.30;1.60;;;10.40;99.90;;;;;;5133070;27;20024;-74
2023/04/10 00:37:38;;;;;;;4.53;1.52;;;10.30;99.90;;;;;;5132565;27;20397;-72
2023/04/10 00:40:05;;;;;;;9.85;1.95;;;10.20;99.90;;;;;;5132971;27;20109;-75
2023/04/10 00:42:31;;;;;;;5.88;1.65;;;10.20;99.90;;;;;;5132398;27;20448;-73
2023/04/10 00:44:57;;;;;;;6.38;1.95;;;10.20;99.90;;;;;;5132787;27;20019;-74
2023/04/10 00:47:23;;;;;;;9.02;1.85;;;10.20;99.90;;;;;;5133268;27;20034;-73
2023/04/10 00:49:49;;;;;;;4.75;1.50;;;10.10;99.90;;;;;;5132074;27;20023;-74
2023/04/10 00:52:15;;;;;;;6.30;1.70;;;10.10;99.90;;;;;;5132897;27;20072;-74
2023/04/10 00:54:41;;;;;;;11.15;1.60;;;10.10;99.90;;;;;;5132570;27;20031;-74
2023/04/10 00:57:07;;;;;;;9.57;2.92;;;10.10;99.90;;;;;;5132881;27;20490;-74
2023/04/10 00:59:34;;;;;;;7.82;2.50;;;10.00;99.90;;;;;;5132365;27;20053;-74
2023/04/10 01:01:59;;;;;;;11.48;2.92;;;10.00;99.90;;;;;;5132778;27;20102;-74
2023/04/10 01:04:27;;;;;;;11.50;2.28;;;10.00;99.90;;;;;;5132844;27;20065;-74
2023/04/10 01:07:33;;;;;;;13.07;2.47;;;10.00;99.90;;;;;;5132359;27;20033;-74
2023/04/10 01:10:10;;;;;;;6.75;1.92;;;10.00;99.90;;;;;;5133048;27;20383;-74
2023/04/10 01:13:10;;;;;;;7.90;1.67;;;9.90;99.90;;;;;;5132355;27;20030;-73
2023/04/10 01:15:48;;;;;;;13.35;2.25;;;9.90;99.90;;;;;;5132169;27;20023;-74
2023/04/10 01:18:52;;;;;;;8.38;2.03;;;10.00;99.90;;;;;;5132690;27;20035;-74
2023/04/10 01:21:20;;;;;;;11.00;2.05;;;10.00;99.90;;;;;;5029247;28;20341;-74
2023/04/10 01:24:01;;;;;;;9.52;1.80;;;10.00;99.90;;;;;;5028288;28;20064;-74
2023/04/10 01:26:50;;;;;;;10.18;2.63;;;10.00;99.90;;;;;;5012622;28;20045;-73
2023/04/10 01:29:20;;;;;;;8.40;1.88;;;10.00;99.90;;;;;;5029046;28;20037;-73
2023/04/10 01:31:54;;;;;;;9.52;2.08;;;10.00;99.90;;;;;;5028448;28;20033;-73
2023/04/10 01:34:24;;;;;;;8.82;1.95;;;10.00;99.90;;;;;;5029099;28;20088;-73
2023/04/10 01:37:00;;;;;;;9.40;1.85;;;10.00;99.90;;;;;;5028425;28;20025;-72
2023/04/10 01:39:27;;;;;;;10.70;1.90;;;10.00;99.90;;;;;;5029200;28;20562;-73
2023/04/10 01:41:55;;;;;;;11.00;2.17;;;10.00;99.90;;;;;;5028202;28;20029;-73
2023/04/10 01:44:27;;;;;;;7.50;1.90;;;10.10;99.90;;;;;;5029490;28;20079;-74
2023/04/10 01:46:55;;;;;;;6.65;1.90;;;10.10;99.90;;;;;;5028860;28;20428;-73
2023/04/10 01:49:23;;;;;;;7.18;2.13;;;10.10;99.90;;;;;;5028898;28;20372;-73
2023/04/10 01:51:50;;;;;;;9.00;2.78;;;10.10;99.90;;;;;;5069898;27;20182;-73
2023/04/10 01:54:16;;;;;;;8.00;1.80;;;10.20;99.90;;;;;;5131572;27;20031;-72
2023/04/10 01:56:42;;;;;;;5.30;1.67;;;10.20;99.90;;;;;;5131538;27;20130;-74
2023/04/10 01:59:08;;;;;;;6.00;1.65;;;10.20;99.90;;;;;;5131807;27;20027;-74
2023/04/10 02:01:34;;;;;;;10.35;1.98;;;10.20;99.90;;;;;;5131271;27;20026;-74
2023/04/10 02:04:01;;;;;;;9.10;2.00;;;10.10;99.90;;;;;;5131680;27;20422;-74
2023/04/10 02:06:36;;;;;;;6.28;1.83;;;10.20;99.90;;;;;;5131363;27;20348;-74
2023/04/10 02:09:15;;;;;;;7.18;1.67;;;10.30;99.90;;;;;;5131212;27;20031;-74
2023/04/10 02:11:46;;;;;;;7.57;1.70;;;10.30;99.90;;;;;;5130900;27;20041;-74
2023/04/10 02:14:16;;;;;;;6.75;1.50;;;10.30;99.90;;;;;;5131468;27;20141;-74
2023/04/10 02:16:43;;;;;;;11.43;2.42;;;10.30;99.90;;;;;;5130931;27;20460;-73
2023/04/10 02:19:11;;;;;;;8.57;1.85;;;10.30;99.90;;;;;;5113017;27;20507;-74
2023/04/10 02:21:38;;;;;;;7.55;2.17;;;10.30;99.90;;;;;;5130665;27;20068;-74
2023/04/10 02:24:05;;;;;;;9.88;1.92;;;10.30;99.90;;;;;;5131523;27;20078;-74
2023/04/10 02:26:44;;;;;;;11.20;2.10;;;10.20;99.90;;;;;;5112724;27;20062;-76
2023/04/10 02:29:10;;;;;;;7.53;2.35;;;10.30;99.90;;;;;;5131291;27;20353;-74
2023/04/10 02:31:36;;;;;;;10.35;2.25;;;10.30;99.90;;;;;;5131091;27;20053;-75
2023/04/10 02:34:02;;;;;;;9.15;2.00;;;10.30;99.90;;;;;;5131579;28;20141;-74
2023/04/10 02:36:28;;;;;;;11.43;2.20;;;10.30;99.90;;;;;;5131308;28;20140;-74
2023/04/10 02:38:54;;;;;;;8.23;2.33;;;10.30;99.90;;;;;;5130091;28;20067;-74
2023/04/10 02:41:21;;;;;;;11.35;2.35;;;10.30;99.90;;;;;;5130897;28;20118;-74
2023/04/10 02:43:46;;;;;;;10.77;2.55;;;10.30;99.90;;;;;;5130470;28;20170;-74
2023/04/10 02:46:12;;;;;;;9.60;1.95;;;10.30;99.90;;;;;;5112648;28;20113;-73
2023/04/10 02:48:38;;;;;;;12.45;2.40;;;10.30;99.90;;;;;;5130702;28;20093;-74
2023/04/10 02:51:04;;;;;;;13.10;2.47;;;10.40;99.90;;;;;;5131084;28;20027;-74
2023/04/10 02:53:31;;;;;;;10.88;2.53;;;10.30;99.90;;;;;;5132347;27;20036;-74
2023/04/10 02:55:57;;;;;;;12.18;2.47;;;10.30;99.90;;;;;;5134799;27;20031;-74
2023/04/10 02:58:22;;;;;;;10.57;2.22;;;10.30;99.90;;;;;;5134854;27;20341;-74
2023/04/10 03:00:49;;;;;;;9.65;2.38;;;10.30;99.90;;;;;;5116024;27;20023;-74
2023/04/10 03:03:15;;;;;;;13.73;3.13;;;10.30;99.90;;;;;;5135270;27;20026;-73
2023/04/10 03:05:41;;;;;;;19.77;3.00;;;10.30;99.90;;;;;;5115809;27;20383;-74
2023/04/10 03:08:07;;;;;;;11.45;2.67;;;10.30;99.90;;;;;;5135205;27;20031;-74
2023/04/10 03:10:33;;;;;;;14.77;2.70;;;10.30;99.90;;;;;;5134681;27;20023;-74
2023/04/10 03:12:58;;;;;;;18.52;3.00;;;10.30;99.90;;;;;;5134743;27;20508;-74
2023/04/10 03:15:24;;;;;;;11.25;2.28;;;10.30;99.90;;;;;;5135022;27;20083;-73
2023/04/10 03:17:50;;;;;;;12.45;2.88;;;10.30;99.90;;;;;;5134201;27;20148;-73
2023/04/10 03:20:16;;;;;;;17.05;3.35;;;10.30;99.90;;;;;;5134984;27;20479;-73
2023/04/10 03:22:42;;;;;;;12.57;2.90;;;10.30;99.90;;;;;;5133843;27;20054;-73
2023/04/10 03:25:08;;;;;;;11.70;3.22;;;10.30;99.90;;;;;;5135103;27;20106;-73
2023/04/10 03:27:35;;;;;;;11.60;2.28;;;10.30;99.90;;;;;;5134363;27;20047;-76
2023/04/10 03:30:01;;;;;;;11.30;2.90;;;10.20;99.90;;;;;;5134423;27;20030;-73
2023/04/10 03:32:29;;;;;;;13.10;2.90;;;10.20;99.90;;;;;;5134868;27;20120;-73
2023/04/10 03:34:56;;;;;;;10.23;3.00;;;10.10;99.90;;;;;;5134229;27;20058;-73
2023/04/10 03:37:22;;;;;;;17.67;3.78;;;10.10;99.90;;;;;;5134583;27;20034;-73
2023/04/10 03:39:47;;;;;;;16.63;2.78;;;10.10;99.90;;;;;;5134030;27;20023;-73
2023/04/10 03:42:13;;;;;;;17.23;2.80;;;10.00;99.90;;;;;;5134324;27;20452;-73
2023/04/10 03:44:39;;;;;;;12.70;2.53;;;10.00;99.90;;;;;;5134268;27;20031;-78
2023/04/10 03:47:04;;;;;;;8.57;2.45;;;10.00;99.90;;;;;;5134822;27;20019;-74
2023/04/10 03:49:30;;;;;;;10.05;2.38;;;9.90;99.90;;;;;;5134326;27;20028;-74
2023/04/10 03:51:56;;;;;;;8.90;2.40;;;9.90;99.90;;;;;;5133857;27;20219;-73
2023/04/10 03:54:22;;;;;;;14.95;3.35;;;9.80;99.90;;;;;;5134564;27;20034;-73
2023/04/10 03:56:47;;;;;;;10.00;3.00;;;9.80;99.90;;;;;;5133641;27;20057;-74
2023/04/10 03:59:13;;;;;;;17.58;3.60;;;9.70;99.90;;;;;;5134078;27;20139;-73
2023/04/10 04:01:39;;;;;;;12.13;2.75;;;9.70;99.90;;;;;;5134358;27;20037;-76
2023/04/10 04:04:05;;;;;;;13.18;3.03;;;9.60;99.90;;;;;;5134037;27;20329;-74
2023/04/10 04:06:30;;;;;;;11.93;2.78;;;9.60;99.90;;;;;;5133506;27;20055;-73
2023/04/10 04:08:56;;;;;;;12.30;2.80;;;9.60;99.90;;;;;;5133278;27;20125;-74
2023/04/10 04:11:22;;;;;;;9.63;2.60;;;9.60;99.90;;;;;;5134575;27;20033;-74
2023/04/10 04:13:47;;;;;;;13.77;2.80;;;9.50;99.90;;;;;;5133950;27;20094;-75
2023/04/10 04:16:13;;;;;;;12.30;2.90;;;9.50;99.90;;;;;;5134411;27;20058;-74
2023/04/10 04:18:39;;;;;;;14.90;2.72;;;9.50;99.90;;;;;;5133524;27;20384;-78
2023/04/10 04:21:07;;;;;;;15.88;2.85;;;9.40;99.90;;;;;;5133389;27;20023;-75
2023/04/10 04:23:33;;;;;;;15.60;2.85;;;9.40;99.90;;;;;;5115506;27;20442;-75
2023/04/10 04:25:58;;;;;;;8.68;2.80;;;9.40;99.90;;;;;;5133719;27;20099;-73
2023/04/10 04:28:24;;;;;;;10.15;2.53;;;9.40;99.90;;;;;;5134120;27;20035;-74
2023/04/10 04:30:50;;;;;;;13.38;2.42;;;9.40;99.90;;;;;;5133168;27;20467;-74
2023/04/10 04:33:15;;;;;;;10.68;2.67;;;9.30;99.90;;;;;;5133810;27;20027;-74
2023/04/10 04:35:41;;;;;;;11.60;2.53;;;9.30;99.90;;;;;;5133421;27;20030;-77
2023/04/10 04:38:07;;;;;;;14.38;2.83;;;9.30;99.90;;;;;;5133367;27;20031;-74
2023/04/10 04:40:33;;;;;;;6.82;2.50;;;9.30;99.90;;;;;;5133123;27;20035;-74
2023/04/10 04:42:58;;;;;;;9.25;2.83;;;9.30;99.90;;;;;;5132831;27;20132;-74
2023/04/10 04:45:24;;;;;;;9.77;2.53;;;9.20;99.90;;;;;;5133390;27;20031;-74
2023/04/10 04:47:50;;;;;;;11.60;2.90;;;9.30;99.90;;;;;;5133079;27;20472;-75
2023/04/10 04:50:15;;;;;;;11.07;2.80;;;9.20;99.90;;;;;;5133283;27;20483;-74
2023/04/10 04:52:43;;;;;;;12.63;2.17;;;9.20;99.90;;;;;;5133040;27;20034;-77
2023/04/10 04:55:09;;;;;;;11.15;2.72;;;9.20;99.90;;;;;;5133309;27;20027;-74
2023/04/10 04:57:34;;;;;;;13.73;2.60;;;9.20;99.90;;;;;;5133015;27;20087;-74
2023/04/10 05:00:00;;;;;;;12.55;2.40;;;9.20;99.90;;;;;;5132534;27;20027;-73
2023/04/10 05:02:26;;;;;;;8.85;2.30;;;9.20;99.90;;;;;;5133334;27;20039;-74
2023/04/10 05:04:51;;;;;;;8.10;2.20;;;9.20;99.90;;;;;;5132204;27;20031;-74
2023/04/10 05:07:17;;;;;;;13.02;2.60;;;9.20;99.90;;;;;;5133142;27;20074;-73
2023/04/10 05:09:43;;;;;;;12.68;2.72;;;9.20;99.90;;;;;;5132819;27;20521;-77
2023/04/10 05:12:08;;;;;;;12.85;3.17;;;9.10;99.90;;;;;;5132577;27;20068;-74
2023/04/10 05:14:34;;;;;;;13.95;2.70;;;9.10;99.90;;;;;;5132892;27;20169;-73
2023/04/10 05:17:00;;;;;;;9.93;2.00;;;9.10;99.90;;;;;;5130976;27;20034;-74
2023/04/10 05:19:25;;;;;;;10.90;2.22;;;9.00;99.90;;;;;;5132557;27;20083;-74
2023/04/10 05:21:51;;;;;;;12.57;2.38;;;9.00;99.90;;;;;;5132180;27;20106;-75
2023/04/10 05:24:17;;;;;;;11.93;2.85;;;9.00;99.90;;;;;;5132564;27;20135;-73
2023/04/10 05:26:42;;;;;;;11.18;2.53;;;9.00;99.90;;;;;;5132649;27;20455;-73
2023/04/10 05:29:08;;;;;;;9.95;2.55;;;9.00;99.90;;;;;;5132076;27;20031;-73
2023/04/10 05:31:34;;;;;;;11.45;2.47;;;9.00;99.90;;;;;;5132537;27;20405;-73
2023/04/10 05:34:00;;;;;;;11.57;2.05;;;9.00;99.90;;;;;;5131583;27;20019;-73
2023/04/10 05:36:26;;;;;;;9.80;2.65;;;9.00;99.90;;;;;;5132264;27;20023;-74
2023/04/10 05:38:52;;;;;;;10.55;2.20;;;9.00;99.90;;;;;;5131538;27;20103;-74
2023/04/10 05:41:17;;;;;;;9.40;2.00;;;9.00;99.90;;;;;;5132227;27;20027;-74
2023/04/10 05:43:43;;;;;;;11.00;2.42;;;9.10;99.90;;;;;;5132338;27;20034;-74
2023/04/10 05:46:10;;;;;;;11.85;2.13;;;9.10;99.90;;;;;;5132029;27;20114;-74
2023/04/10 05:48:36;;;;;;;14.15;2.55;;;9.10;99.90;;;;;;5132272;27;20038;-73
2023/04/10 05:51:02;;;;;;;9.93;2.10;;;9.20;99.90;;;;;;5131568;27;20027;-74
2023/04/10 05:53:31;;;;;;;13.73;2.65;;;9.20;99.90;;;;;;5132103;27;20034;-74
2023/04/10 05:56:01;;;;;;;10.90;2.70;;;9.20;99.90;;;;;;5131182;27;20456;-73
2023/04/10 05:58:27;;;;;;;13.82;2.28;;;9.20;99.90;;;;;;5132150;27;20038;-73
2023/04/10 06:00:55;;;;;;;14.77;2.13;;;9.20;99.90;;;;;;5131169;27;20031;-74
2023/04/10 06:03:20;;;;;;;12.10;2.28;;;9.30;99.90;;;;;;5131709;27;20027;-73
2023/04/10 06:05:46;;;;;;;9.00;2.00;;;9.30;99.90;;;;;;5131564;27;20485;-76
2023/04/10 06:08:12;;;;;;;10.07;2.22;;;9.40;99.90;;;;;;5112866;27;20111;-74
2023/04/10 06:10:38;;;;;;;10.25;2.40;;;9.40;99.90;;;;;;5131739;27;20456;-74
2023/04/10 06:13:03;;;;;;;10.63;2.10;;;9.50;99.90;;;;;;5130851;27;20023;-74
2023/04/10 06:15:29;;;;;;;10.48;2.03;;;9.50;99.90;;;;;;5131699;27;20458;-74
2023/04/10 06:17:55;;;;;;;12.05;2.22;;;9.60;99.90;;;;;;5131038;27;20039;-75
2023/04/10 06:20:21;;;;;;;10.93;2.42;;;9.60;99.90;;;;;;5131681;27;20382;-74
2023/04/10 06:22:46;;;;;;;9.35;1.80;;;9.60;99.90;;;;;;5131271;27;20464;-74
2023/04/10 06:25:12;;;;;;;12.38;2.70;;;9.70;99.90;;;;;;5131463;27;20076;-74
2023/04/10 06:27:38;;;;;;;10.00;2.60;;;9.70;99.90;;;;;;5131534;27;20338;-74
2023/04/10 06:30:04;;;;;;;11.07;2.63;;;9.70;99.90;;;;;;5130972;27;20110;-74
2023/04/10 06:32:30;;;;;;;7.70;1.90;;;9.80;99.90;;;;;;5131611;27;20081;-74
2023/04/10 06:34:56;;;;;;;8.30;1.77;;;9.80;99.90;;;;;;5130744;28;20068;-74
2023/04/10 06:37:41;;;;;;;7.68;2.47;;;9.80;99.90;;;;;;5131783;28;20034;-74
2023/04/10 06:40:09;;;;;;;12.65;2.60;;;9.80;99.90;;;;;;5130890;28;20034;-74
2023/04/10 06:42:35;;;;;;;11.90;2.20;;;9.80;99.90;;;;;;5131232;28;20101;-74
2023/04/10 06:45:02;;;;;;;12.50;2.38;;;9.90;99.90;;;;;;5131051;28;20043;-74
2023/04/10 06:47:28;;;;;;;13.10;2.55;;;9.90;99.90;;;;;;5131946;28;20023;-75
2023/04/10 06:49:54;;;;;;;13.95;2.42;;;9.90;99.90;;;;;;5131356;28;20027;-75
2023/04/10 06:52:20;;;;;;;14.73;2.30;;;9.80;99.90;;;;;;5131793;28;20389;-75
2023/04/10 06:54:46;;;;;;;12.75;2.17;;;9.80;99.90;;;;;;5131803;28;20035;-75
2023/04/10 06:57:11;;;;;;;11.02;2.88;;;9.80;99.90;;;;;;5131582;28;20582;-74
2023/04/10 06:59:37;;;;;;;14.15;1.88;;;9.70;99.90;;;;;;5131886;28;20092;-75
2023/04/10 07:02:03;;;;;;;12.57;2.22;;;9.70;99.90;;;;;;5131156;28;20053;-76
2023/04/10 07:04:29;;;;;;;18.42;2.90;;;9.60;99.90;;;;;;5131360;28;20027;-76
2023/04/10 07:06:55;;;;;;;8.98;2.10;;;9.50;99.90;;;;;;5130842;28;20019;-77
2023/04/10 07:09:21;;;;;;;8.95;2.10;;;9.50;99.90;;;;;;5131334;28;20400;-76
2023/04/10 07:11:47;;;;;;;8.15;1.70;;;9.40;99.90;;;;;;5113048;28;20111;-80
2023/04/10 07:14:12;;;;;;;6.22;1.70;;;9.40;99.90;;;;;;5130715;28;20134;-76
2023/04/10 07:16:38;;;;;;;8.00;2.05;;;9.30;99.90;;;;;;5131439;28;20055;-76
2023/04/10 07:19:04;;;;;;;7.28;1.75;;;9.20;99.90;;;;;;5130616;28;20134;-76
2023/04/10 07:21:31;;;;;;;9.82;2.00;;;9.10;99.90;;;;;;5131138;28;20042;-76
2023/04/10 07:23:57;;;;;;;12.45;2.13;;;9.10;99.90;;;;;;5130464;28;20092;-77
2023/04/10 07:26:24;;;;;;;8.10;1.80;;;9.10;99.90;;;;;;5131481;28;20058;-76
2023/04/10 07:28:50;;;;;;;8.15;1.67;;;9.10;99.90;;;;;;5131134;28;20075;-76
2023/04/10 07:31:17;;;;;;;9.32;2.17;;;9.00;99.90;;;;;;5130582;28;20027;-77
2023/04/10 07:33:45;;;;;;;9.52;1.70;;;9.00;99.90;;;;;;5130954;28;20404;-77
2023/04/10 07:36:12;;;;;;;7.30;1.70;;;8.90;99.90;;;;;;5130470;28;20066;-76
2023/04/10 07:38:37;;;;;;;5.05;1.52;;;8.80;99.90;;;;;;5130929;28;20023;-76
2023/04/10 07:41:04;;;;;;;7.63;1.58;;;8.80;99.90;;;;;;5113775;27;20042;-77
2023/04/10 07:43:30;;;;;;;7.43;1.63;;;8.80;99.90;;;;;;5116192;27;20076;-77
2023/04/10 07:45:56;;;;;;;6.72;1.85;;;8.80;99.90;;;;;;5133977;27;20037;-76
2023/04/10 07:48:22;;;;;;;7.63;1.67;;;8.60;99.90;;;;;;5134634;27;20035;-77
2023/04/10 07:50:48;;;;;;;6.95;1.50;;;8.60;99.90;;;;;;5134352;27;20029;-76
2023/04/10 07:53:13;;;;;;;5.90;1.50;;;8.60;99.90;;;;;;5133949;27;20015;-77
2023/04/10 07:55:44;;;;;;;8.60;1.95;;;8.60;99.90;;;;;;5134660;27;20034;-76
2023/04/10 07:58:10;;;;;;;5.20;1.48;;;8.60;99.90;;;;;;5133758;27;20137;-77
2023/04/10 08:00:36;;;;;;;7.75;1.63;;;8.60;99.90;;;;;;5134405;27;20106;-76
2023/04/10 08:03:05;;;;;;;8.32;1.58;;;8.60;99.90;;;;;;5133723;27;20035;-77
2023/04/10 08:05:32;;;;;;;5.90;2.03;;;8.60;99.90;;;;;;5134200;27;20431;-76
2023/04/10 08:07:58;;;;;;;4.35;1.55;;;8.60;99.90;;;;;;5133721;27;20125;-78
2023/04/10 08:10:23;;;;;;;7.25;2.00;;;8.60;99.90;;;;;;5134157;27;20019;-78
2023/04/10 08:12:49;;;;;;;8.88;1.80;;;8.60;99.90;;;;;;5133355;27;20023;-77
2023/04/10 08:15:16;;;;;;;5.80;1.70;;;8.60;99.90;;;;;;5133940;27;20038;-78
2023/04/10 08:17:42;;;;;;;5.45;1.60;;;8.70;99.90;;;;;;5133983;27;20438;-77
2023/04/10 08:20:09;;;;;;;7.00;1.48;;;8.80;99.90;;;;;;5132903;27;20135;-77
2023/04/10 08:22:35;;;;;;;5.72;1.40;;;8.70;99.90;;;;;;5132925;27;20112;-77
2023/04/10 08:25:02;;;;;;;5.20;1.75;;;8.70;99.90;;;;;;5132557;27;20019;-77
2023/04/10 08:27:29;;;;;;;5.55;1.38;;;8.80;99.90;;;;;;5132983;27;20030;-76
2023/04/10 08:29:55;;;;;;;5.13;1.38;;;8.70;99.90;;;;;;5132645;27;20042;-80
2023/04/10 08:32:21;;;;;;;5.03;1.35;;;8.70;99.90;;;;;;5133501;27;20106;-76
2023/04/10 08:34:48;;;;;;;6.88;1.48;;;8.80;99.90;;;;;;5133501;27;20054;-76
2023/04/10 08:37:14;;;;;;;3.83;1.15;;;8.90;99.90;;;;;;5132548;27;20022;-76
2023/04/10 08:39:40;;;;;;;2.67;0.93;;;8.90;99.90;;;;;;5133096;27;20034;-76
2023/04/10 08:42:06;;;;;;;4.03;0.82;;;8.90;99.90;;;;;;5114347;27;20117;-76
2023/04/10 08:44:34;;;;;;;3.15;1.25;;;8.90;99.90;;;;;;5133280;27;20054;-75
2023/04/10 08:47:01;;;;;;;4.95;1.10;;;9.00;99.90;;;;;;5132852;27;20118;-75
2023/04/10 08:49:44;;;;;;;3.67;1.25;;;8.80;99.90;;;;;;5133151;27;20031;-76
2023/04/10 08:52:16;;;;;;;3.05;1.10;;;8.90;99.90;;;;;;5132496;27;20480;-76
2023/04/10 08:54:49;;;;;;;2.22;0.85;;;8.90;99.90;;;;;;5132975;27;20113;-75
2023/04/10 08:57:19;;;;;;;;;;;8.90;99.90;;;;;;5114726;27;20047;-75
2023/04/10 08:59:46;;;;;;;1.70;0.98;;;9.00;99.90;;;;;;5132816;27;20002;-75
2023/04/10 09:02:13;;;;;;;3.15;1.20;;;9.00;99.90;;;;;;5132306;27;20027;-76
2023/04/10 09:04:38;;;;;;;4.75;1.33;;;9.00;99.90;;;;;;5132176;27;20035;-74
2023/04/10 09:07:04;;;;;;;2.58;1.27;;;9.20;99.90;;;;;;5131309;27;20023;-75
2023/04/10 09:09:32;;;;;;;3.38;1.08;;;9.20;99.90;;;;;;5132115;27;20038;-75
2023/04/10 09:12:02;;;;;;;2.72;1.00;;;9.40;99.90;;;;;;5131827;27;20026;-80
2023/04/10 09:14:33;;;;;;;3.03;1.67;;;9.60;99.90;;;;;;5131738;27;20030;-76
2023/04/10 09:17:19;;;;;;;2.90;1.13;;;9.80;99.90;;;;;;5131518;27;20024;-79
2023/04/10 09:19:48;;;;;;;2.15;1.30;;;9.90;99.90;;;;;;5132104;27;20439;-74
2023/04/10 09:22:15;;;;;;;3.65;1.17;;;10.00;99.90;;;;;;5131072;27;20440;-75
2023/04/10 09:24:42;;;;;;;4.07;0.98;;;10.10;99.90;;;;;;5132089;27;20114;-75
2023/04/10 09:27:09;;;;;;;3.40;0.70;;;10.10;99.90;;;;;;5131285;27;20035;-74
2023/04/10 09:29:40;;;;;;;1.45;0.60;;;10.10;99.90;;;;;;5132089;27;20023;-75
2023/04/10 09:32:06;;;;;;;3.17;1.17;;;10.10;99.90;;;;;;5131414;27;20037;-75
2023/04/10 09:34:31;;;;;;;2.05;0.77;;;10.20;99.90;;;;;;5132293;27;20031;-75
2023/04/10 09:37:00;;;;;;;3.40;1.00;;;10.30;99.90;;;;;;5131917;27;20042;-79
2023/04/10 09:39:43;;;;;;;2.40;1.08;;;10.40;99.90;;;;;;5113617;27;20027;-75
2023/04/10 09:42:10;;;;;;;2.75;0.68;;;10.50;99.90;;;;;;5131685;27;20035;-75
2023/04/10 09:44:40;;;;;;;1.40;0.65;;;10.50;99.90;;;;;;5132193;27;20364;-75
2023/04/10 09:47:22;;;;;;;1.73;0.73;;;10.50;99.90;;;;;;5131946;27;20027;-76
2023/04/10 09:49:53;;;;;;;3.70;0.80;;;10.60;99.90;;;;;;5132889;27;20042;-74
2023/04/10 09:52:25;;;;;;;2.67;1.10;;;10.70;99.90;;;;;;5131869;27;20046;-75
2023/04/10 09:54:52;;;;;;;1.50;0.55;;;10.80;99.90;;;;;;5132563;27;20348;-74
2023/04/10 09:57:19;;;;;;;2.33;1.00;;;10.80;99.90;;;;;;5132128;27;20023;-75
2023/04/10 09:59:50;;;;;;;3.33;0.93;;;10.90;99.90;;;;;;5132662;27;20399;-74
2023/04/10 10:02:18;;;;;;;4.68;1.02;;;11.10;99.90;;;;;;5131934;27;20049;-75
2023/04/10 10:04:46;;;;;;;2.85;1.02;;;11.20;99.90;;;;;;5131868;27;20019;-74
2023/04/10 10:07:13;;;;;;;4.22;0.90;;;11.20;99.90;;;;;;5131657;27;20472;-74
2023/04/10 10:09:40;;;;;;;4.00;1.00;;;11.10;99.90;;;;;;5132026;27;20027;-74
2023/04/10 10:12:08;;;;;;;3.95;0.80;;;11.00;99.90;;;;;;5131341;27;20148;-74
2023/04/10 10:14:43;;;;;;;4.15;1.15;;;10.90;99.90;;;;;;5132043;27;20031;-74
2023/04/10 10:17:11;;;;;;;4.80;1.10;;;11.00;99.90;;;;;;5131427;27;20047;-75
2023/04/10 10:19:49;;;;;;;6.38;1.60;;;10.80;99.90;;;;;;5131841;27;20023;-74
2023/04/10 10:22:15;;;;;;;2.60;1.08;;;10.80;99.90;;;;;;5131132;27;20061;-78
2023/04/10 10:24:46;;;;;;;3.53;0.93;;;10.60;99.90;;;;;;5131922;27;20035;-76
2023/04/10 10:27:15;;;;;;;5.05;1.40;;;10.60;99.90;;;;;;5131293;27;20080;-76
2023/04/10 10:29:43;;;;;;;3.70;1.15;;;10.60;99.90;;;;;;5131669;27;20030;-76
2023/04/10 10:32:10;;;;;;;3.60;1.27;;;10.70;99.90;;;;;;5131148;27;20029;-76
2023/04/10 10:34:36;;;;;;;5.65;1.40;;;10.80;99.90;;;;;;5131577;27;20098;-75
2023/04/10 10:37:04;;;;;;;5.43;1.45;;;10.80;99.90;;;;;;5113713;28;20441;-80
2023/04/10 10:39:55;;;;;;;3.40;1.17;;;10.80;99.90;;;;;;5131602;28;20102;-75
2023/04/10 10:42:32;;;;;;;3.60;1.05;;;10.90;99.90;;;;;;5131603;28;20031;-75
2023/04/10 10:45:11;;;;;;;3.13;0.88;;;11.00;99.90;;;;;;5131568;28;20110;-73
2023/04/10 10:47:52;;;;;;;2.13;0.98;;;11.10;99.90;;;;;;5114121;28;20467;-73
2023/04/10 10:50:18;;;;;;;3.13;0.90;;;11.00;99.90;;;;;;5131506;28;20056;-74
2023/04/10 10:52:50;;;;;;;3.30;1.00;;;11.00;99.90;;;;;;5132134;28;20034;-74
2023/04/10 10:55:21;;;;;;;3.45;0.82;;;11.00;99.90;;;;;;5131453;28;20019;-74
2023/04/10 10:58:01;;;;;;;2.60;1.00;;;11.00;99.90;;;;;;5131752;28;20103;-74
2023/04/10 11:00:49;;;;;;;2.03;0.93;;;11.00;99.90;;;;;;5131299;28;20038;-74
2023/04/10 11:03:15;;;;;;;3.67;1.00;;;11.00;99.90;;;;;;5131155;28;20026;-75
2023/04/10 11:06:01;;;;;;;1.50;0.45;;;11.00;99.90;;;;;;5131812;28;20428;-75
2023/04/10 11:08:45;;;;;;;2.05;0.93;;;11.10;99.90;;;;;;5113676;28;20034;-74
2023/04/10 11:11:15;;;;;;;3.78;0.70;;;11.10;99.90;;;;;;5130963;28;20085;-75
2023/04/10 11:13:49;;;;;;;5.78;1.20;;;11.20;99.90;;;;;;5131406;28;20038;-75
2023/04/10 11:16:15;;;;;;;4.07;1.00;;;11.30;99.90;;;;;;5134742;27;20059;-75
2023/04/10 11:18:43;;;;;;;7.38;1.00;;;11.40;99.90;;;;;;5135370;27;20076;-74
2023/04/10 11:21:17;;;;;;;2.63;1.08;;;11.50;99.90;;;;;;5134847;27;20075;-75
2023/04/10 11:23:49;;;;;;;3.05;0.90;;;11.60;99.90;;;;;;5135529;27;20127;-74
2023/04/10 11:26:33;;;;;;;4.45;1.17;;;11.90;99.90;;;;;;5134831;27;20467;-75
2023/04/10 11:29:11;;;;;;;2.50;0.90;;;11.90;99.90;;;;;;5135418;27;20031;-75
2023/04/10 11:31:37;;;;;;;3.05;1.10;;;11.80;99.90;;;;;;5135377;27;20031;-81
2023/04/10 11:34:05;;;;;;;4.53;1.02;;;11.60;99.90;;;;;;5116631;27;20114;-78
2023/04/10 11:36:32;;;;;;;4.85;0.80;;;11.20;99.90;;;;;;5134974;27;20075;-76
2023/04/10 11:38:58;;;;;;;1.30;0.80;;;11.10;99.90;;;;;;5134732;27;20034;-76
2023/04/10 11:41:29;;;;;;;2.90;0.90;;;10.80;99.90;;;;;;5134526;27;20059;-77
2023/04/10 11:43:55;;;;;;;3.40;1.10;;;10.70;99.90;;;;;;5134890;27;20095;-76
2023/04/10 11:46:21;;;;;;;3.83;0.90;;;10.60;99.90;;;;;;5134444;27;20048;-76
2023/04/10 11:48:47;;;;;;;2.70;0.95;;;10.40;99.90;;;;;;5134211;27;20449;-75
2023/04/10 11:51:13;;;;;;;3.05;0.90;;;10.30;99.90;;;;;;5133955;27;20043;-76
2023/04/10 11:53:40;;;;;;;3.45;0.77;;;10.10;99.90;;;;;;5135319;27;20027;-75
2023/04/10 11:56:18;;;;;;;2.35;1.10;;;10.10;99.90;;;;;;5135416;27;20060;-79
2023/04/10 11:58:44;;;;;;;4.10;0.90;;;9.90;99.90;;;;;;5134223;27;20425;-75
2023/04/10 12:01:13;;;;;;;3.63;1.15;;;9.80;99.90;;;;;;5134034;27;20084;-75
2023/04/10 12:03:41;;;;;;;2.97;0.90;;;9.70;99.90;;;;;;5134722;27;20038;-75
2023/04/10 12:06:12;;;;;;;5.68;1.00;;;9.70;99.90;;;;;;5134476;27;20027;-79
2023/04/10 12:08:49;;;;;;;5.15;1.30;;;9.70;99.90;;;;;;5134173;27;20099;-74
2023/04/10 12:11:27;;;;;;;2.08;0.90;;;9.70;99.90;;;;;;5133588;27;20034;-75
2023/04/10 12:13:55;;;;;;;2.88;1.05;;;9.60;99.90;;;;;;5133881;27;20027;-74
2023/04/10 12:16:21;;;;;;;2.80;0.98;;;9.70;99.90;;;;;;5133605;27;20023;-75
2023/04/10 12:18:48;;;;;;;6.32;5.07;;;9.70;99.90;;;;;;5133912;27;20027;-75
2023/04/10 12:21:14;;;;;;;7.72;6.18;;;9.90;99.90;;;;;;5133003;27;20034;-75
2023/04/10 12:23:41;;;;;;;8.77;6.18;;;10.00;99.90;;;;;;5133601;27;20051;-75
2023/04/10 12:26:10;;;;;;;8.77;6.53;;;10.10;99.90;;;;;;5132924;27;20024;-74
2023/04/10 12:28:36;;;;;;;4.82;2.83;;;10.30;99.90;;;;;;5133577;27;20041;-74
2023/04/10 12:31:03;;;;;;;3.65;1.77;;;10.30;99.90;;;;;;5133549;27;20019;-75
2023/04/10 12:33:28;;;;;;;3.10;1.83;;;10.30;99.90;;;;;;5132843;27;20030;-74
2023/04/10 12:35:55;;;;;;;3.47;2.50;;;10.40;99.90;;;;;;5133085;27;20031;-74
2023/04/10 12:38:50;;;;;;;4.03;2.05;;;10.50;99.90;;;;;;5133081;27;20081;-73
2023/04/10 12:41:38;;;;;;;2.88;1.83;;;10.50;99.90;;;;;;5099859;27;20043;-74
2023/04/10 12:44:10;;;;;;;2.90;1.60;;;10.70;99.90;;;;;;5133410;27;20486;-73
2023/04/10 12:46:36;;;;;;;3.00;1.75;;;10.90;99.90;;;;;;5133153;27;20058;-73
2023/04/10 12:49:15;;;;;;;2.00;1.30;;;11.00;99.90;;;;;;5132689;27;20058;-77
2023/04/10 12:51:49;;;;;;;5.32;2.50;;;11.10;99.90;;;;;;5132675;27;20031;-73
2023/04/10 12:54:35;;;;;;;3.03;1.50;;;11.20;99.90;;;;;;5132464;27;20023;-74